createdAt,value
2023-05-21T00:01:44.033Z,17.28
2023-05-21T00:04:12.089Z,17.22
2023-05-21T00:06:39.167Z,17.19
2023-05-21T00:09:06.616Z,17.17
2023-05-21T00:11:33.809Z,17.14
2023-05-21T00:14:01.120Z,17.07
2023-05-21T00:16:28.224Z,17.00
2023-05-21T00:18:55.438Z,16.95
2023-05-21T00:21:23.335Z,16.90
2023-05-21T00:23:50.556Z,16.95
2023-05-21T00:26:17.467Z,16.93
2023-05-21T00:28:45.536Z,16.86
2023-05-21T00:31:12.581Z,16.86
2023-05-21T00:33:39.558Z,16.87
2023-05-21T00:36:06.849Z,16.86
2023-05-21T00:38:33.911Z,16.83
2023-05-21T00:41:02.580Z,16.85
2023-05-21T00:43:29.571Z,16.85
2023-05-21T00:45:56.781Z,16.85
2023-05-21T00:48:23.853Z,16.85
2023-05-21T00:50:51.046Z,16.83
2023-05-21T00:53:19.620Z,16.84
2023-05-21T00:55:46.798Z,16.85
2023-05-21T00:58:13.822Z,16.83
2023-05-21T01:00:40.864Z,16.83
2023-05-21T01:03:08.368Z,16.83
2023-05-21T01:05:35.893Z,16.82
2023-05-21T01:08:03.960Z,16.82
2023-05-21T01:10:31.040Z,16.84
2023-05-21T01:12:58.432Z,16.89
2023-05-21T01:15:25.667Z,16.88
2023-05-21T01:17:53.314Z,16.87
2023-05-21T01:20:20.462Z,16.84
2023-05-21T01:22:57.078Z,16.84
2023-05-21T01:25:25.038Z,16.77
2023-05-21T01:27:52.297Z,16.71
2023-05-21T01:30:20.235Z,16.72
2023-05-21T01:33:04.157Z,16.72
2023-05-21T01:36:03.178Z,16.70
2023-05-21T01:38:38.070Z,16.68
2023-05-21T01:41:08.309Z,16.65
2023-05-21T01:43:38.635Z,16.64
2023-05-21T01:46:05.783Z,16.59
2023-05-21T01:48:33.058Z,16.55
2023-05-21T01:51:02.856Z,16.54
2023-05-21T01:53:29.823Z,16.56
2023-05-21T01:55:56.960Z,16.57
2023-05-21T01:58:24.432Z,16.55
2023-05-21T02:00:51.999Z,16.50
2023-05-21T02:03:19.770Z,16.46
2023-05-21T02:05:47.495Z,16.45
2023-05-21T02:08:15.618Z,16.40
2023-05-21T02:10:42.622Z,16.38
2023-05-21T02:13:09.818Z,16.40
2023-05-21T02:15:37.366Z,16.44
2023-05-21T02:18:04.705Z,16.42
2023-05-21T02:20:32.032Z,16.39
2023-05-21T02:22:58.956Z,16.36
2023-05-21T02:25:26.078Z,16.32
2023-05-21T02:27:54.227Z,16.34
2023-05-21T02:30:21.192Z,16.29
2023-05-21T02:32:50.075Z,16.29
2023-05-21T02:35:17.215Z,16.31
2023-05-21T02:37:44.484Z,16.30
2023-05-21T02:40:12.045Z,16.30
2023-05-21T02:42:40.452Z,16.24
2023-05-21T02:45:09.307Z,16.22
2023-05-21T02:47:36.630Z,16.20
2023-05-21T02:50:03.976Z,16.21
2023-05-21T02:52:31.571Z,16.20
2023-05-21T02:54:58.598Z,16.20
2023-05-21T02:57:25.855Z,16.23
2023-05-21T02:59:52.870Z,16.24
2023-05-21T03:02:19.882Z,16.26
2023-05-21T03:04:47.052Z,16.29
2023-05-21T03:07:15.264Z,16.29
2023-05-21T03:09:44.300Z,16.30
2023-05-21T03:12:11.487Z,16.31
2023-05-21T03:14:38.563Z,16.35
2023-05-21T03:17:08.513Z,16.35
2023-05-21T03:19:36.561Z,16.33
2023-05-21T03:22:04.734Z,16.33
2023-05-21T03:24:33.739Z,16.30
2023-05-21T03:27:01.603Z,16.35
2023-05-21T03:29:28.706Z,16.38
2023-05-21T03:31:56.376Z,16.43
2023-05-21T03:34:24.435Z,16.47
2023-05-21T03:36:52.340Z,16.52
2023-05-21T03:39:19.613Z,16.56
2023-05-21T03:41:46.651Z,16.62
2023-05-21T03:44:20.054Z,16.69
2023-05-21T03:46:51.893Z,16.78
2023-05-21T03:49:31.009Z,16.87
2023-05-21T03:51:58.209Z,16.93
2023-05-21T03:54:25.811Z,16.99
2023-05-21T03:56:55.605Z,17.03
2023-05-21T03:59:23.253Z,17.09
2023-05-21T04:01:51.541Z,17.18
2023-05-21T04:04:18.735Z,17.25
2023-05-21T04:06:45.757Z,17.29
2023-05-21T04:09:13.072Z,17.31
2023-05-21T04:11:40.044Z,17.34
2023-05-21T04:14:07.236Z,17.40
2023-05-21T04:16:35.589Z,17.45
2023-05-21T04:19:04.273Z,17.51
2023-05-21T04:21:32.394Z,17.59
2023-05-21T04:24:00.971Z,17.64
2023-05-21T04:26:46.306Z,17.70
2023-05-21T04:29:13.362Z,17.72
2023-05-21T04:31:40.330Z,17.72
2023-05-21T04:34:07.456Z,17.74
2023-05-21T04:36:34.617Z,17.75
2023-05-21T04:39:01.934Z,17.77
2023-05-21T04:41:29.077Z,17.82
2023-05-21T04:43:56.130Z,17.88
2023-05-21T04:46:25.710Z,17.93
2023-05-21T04:48:55.506Z,18.00
2023-05-21T04:51:24.955Z,18.05
2023-05-21T04:53:52.122Z,18.09
2023-05-21T04:56:19.296Z,18.17
2023-05-21T04:58:48.228Z,18.21
2023-05-21T05:01:15.846Z,18.25
2023-05-21T05:03:42.994Z,18.29
2023-05-21T05:06:17.714Z,18.39
2023-05-21T05:08:46.407Z,18.50
2023-05-21T05:11:14.705Z,18.60
2023-05-21T05:13:42.208Z,18.71
2023-05-21T05:16:09.578Z,18.83
2023-05-21T05:18:36.796Z,18.94
2023-05-21T05:21:03.916Z,19.04
2023-05-21T05:23:32.164Z,19.18
2023-05-21T05:25:59.354Z,19.28
2023-05-21T05:28:29.942Z,19.38
2023-05-21T05:30:57.084Z,19.53
2023-05-21T05:33:24.989Z,19.63
2023-05-21T05:35:52.033Z,19.70
2023-05-21T05:38:19.132Z,19.73
2023-05-21T05:40:50.136Z,19.80
2023-05-21T05:43:17.075Z,19.91
2023-05-21T05:45:44.340Z,20.05
2023-05-21T05:48:14.448Z,20.21
2023-05-21T05:50:41.858Z,20.29
2023-05-21T05:53:09.437Z,20.39
2023-05-21T05:55:36.708Z,20.52
2023-05-21T05:58:04.164Z,20.68
2023-05-21T06:00:32.711Z,20.69
2023-05-21T06:02:59.929Z,20.71
2023-05-21T06:05:27.232Z,20.76
2023-05-21T06:07:54.262Z,20.85
2023-05-21T06:10:21.266Z,21.00
2023-05-21T06:12:50.889Z,21.18
2023-05-21T06:15:20.259Z,21.30
2023-05-21T06:17:47.605Z,21.24
2023-05-21T06:20:15.131Z,21.16
2023-05-21T06:22:42.376Z,21.17
2023-05-21T06:25:11.008Z,21.33
2023-05-21T06:27:38.854Z,21.52
2023-05-21T06:30:09.341Z,21.67
2023-05-21T06:32:37.938Z,21.79
2023-05-21T06:35:05.878Z,21.92
2023-05-21T06:37:32.903Z,22.05
2023-05-21T06:40:01.915Z,22.19
2023-05-21T06:42:29.560Z,22.24
2023-05-21T06:45:16.550Z,22.27
2023-05-21T06:47:44.999Z,22.24
2023-05-21T06:50:12.085Z,22.28
2023-05-21T06:52:39.218Z,22.39
2023-05-21T06:55:07.249Z,22.52
2023-05-21T06:57:53.121Z,22.48
2023-05-21T07:00:20.154Z,22.54
2023-05-21T07:02:47.308Z,22.64
2023-05-21T07:05:14.614Z,22.73
2023-05-21T07:07:41.780Z,22.80
2023-05-21T07:10:09.748Z,22.86
2023-05-21T07:12:36.837Z,22.98
2023-05-21T07:15:04.066Z,23.04
2023-05-21T07:17:31.056Z,23.11
2023-05-21T07:19:58.133Z,23.13
2023-05-21T07:22:26.692Z,23.20
2023-05-21T07:24:55.282Z,23.31
2023-05-21T07:27:25.770Z,23.35
2023-05-21T07:29:54.576Z,23.40
2023-05-21T07:32:21.878Z,23.41
2023-05-21T07:34:49.117Z,23.45
2023-05-21T07:37:16.298Z,23.51
2023-05-21T07:39:43.292Z,23.56
2023-05-21T07:42:11.249Z,23.62
2023-05-21T07:44:48.694Z,23.67
2023-05-21T07:47:16.065Z,23.63
2023-05-21T07:49:43.154Z,23.58
2023-05-21T07:52:10.694Z,23.55
2023-05-21T07:54:37.723Z,23.53
2023-05-21T07:57:05.709Z,23.47
2023-05-21T07:59:55.238Z,23.43
2023-05-21T08:02:22.262Z,23.39
2023-05-21T08:04:49.358Z,23.39
2023-05-21T08:07:20.022Z,23.50
2023-05-21T08:09:47.460Z,23.64
2023-05-21T08:12:18.908Z,23.69
2023-05-21T08:14:46.216Z,23.68
2023-05-21T08:17:13.934Z,23.73
2023-05-21T08:19:42.208Z,23.81
2023-05-21T08:22:10.287Z,23.90
2023-05-21T08:24:38.283Z,23.95
2023-05-21T08:27:05.692Z,23.91
2023-05-21T08:29:36.312Z,23.96
2023-05-21T08:32:04.141Z,23.92
2023-05-21T08:34:32.071Z,23.93
2023-05-21T08:37:19.184Z,23.98
2023-05-21T08:40:07.029Z,24.00
2023-05-21T08:42:45.726Z,24.00
2023-05-21T08:45:23.478Z,24.07
2023-05-21T08:47:56.176Z,24.16
2023-05-21T08:50:26.461Z,24.15
2023-05-21T08:52:55.515Z,24.04
2023-05-21T08:55:23.788Z,23.98
2023-05-21T08:57:50.965Z,24.05
2023-05-21T09:00:18.295Z,24.20
2023-05-21T09:02:46.732Z,24.32
2023-05-21T09:05:15.145Z,24.36
2023-05-21T09:07:56.007Z,24.33
2023-05-21T09:10:42.836Z,24.29
2023-05-21T09:13:10.065Z,24.29
2023-05-21T09:15:37.843Z,24.31
2023-05-21T09:18:09.793Z,24.25
2023-05-21T09:20:47.029Z,24.23
2023-05-21T09:23:17.273Z,24.34
2023-05-21T09:25:50.049Z,24.42
2023-05-21T09:28:22.993Z,24.47
2023-05-21T09:30:55.152Z,24.55
2023-05-21T09:33:27.260Z,24.67
2023-05-21T09:35:55.636Z,24.81
2023-05-21T09:38:23.997Z,24.89
2023-05-21T09:46:28.986Z,25.10
2023-05-21T09:48:57.723Z,25.17
2023-05-21T09:51:28.295Z,25.22
2023-05-21T09:57:25.877Z,25.20
2023-05-21T09:59:52.902Z,25.18
2023-05-21T10:02:21.539Z,25.19
2023-05-21T10:04:50.294Z,25.19
2023-05-21T10:07:18.921Z,25.24
2023-05-21T10:09:47.840Z,25.34
2023-05-21T10:12:16.892Z,25.50
2023-05-21T10:14:43.950Z,25.52
2023-05-21T10:17:10.973Z,25.55
2023-05-21T10:19:40.765Z,25.63
2023-05-21T10:22:07.915Z,25.70
2023-05-21T10:24:34.807Z,25.75
2023-05-21T10:27:02.047Z,25.76
2023-05-21T10:29:29.149Z,25.80
2023-05-21T10:31:56.648Z,25.81
2023-05-21T10:34:25.181Z,25.80
2023-05-21T10:36:57.470Z,25.83
2023-05-21T10:39:25.485Z,25.82
2023-05-21T10:42:17.539Z,25.88
2023-05-21T10:45:04.943Z,25.93
2023-05-21T10:47:56.960Z,25.89
2023-05-21T10:50:46.050Z,25.99
2023-05-21T10:53:28.853Z,26.12
2023-05-21T10:56:24.214Z,26.19
2023-05-21T10:59:07.588Z,26.28
2023-05-21T11:01:36.697Z,26.35
2023-05-21T11:04:06.813Z,26.37
2023-05-21T11:06:33.957Z,26.41
2023-05-21T11:09:20.212Z,26.45
2023-05-21T11:11:50.932Z,26.49
2023-05-21T11:14:44.075Z,26.53
2023-05-21T11:17:16.372Z,26.61
2023-05-21T11:19:47.410Z,26.63
2023-05-21T11:22:22.554Z,26.64
2023-05-21T11:24:51.347Z,26.61
2023-05-21T11:27:31.489Z,26.91
2023-05-21T11:29:58.943Z,27.11
2023-05-21T11:32:26.103Z,27.07
2023-05-21T11:34:53.128Z,26.71
2023-05-21T11:37:30.836Z,26.69
2023-05-21T11:39:58.846Z,26.71
2023-05-21T11:42:38.847Z,26.76
2023-05-21T11:45:06.229Z,26.72
2023-05-21T11:47:35.810Z,26.48
2023-05-21T11:50:03.952Z,26.46
2023-05-21T11:52:31.920Z,26.43
2023-05-21T11:55:00.121Z,26.43
2023-05-21T11:57:30.971Z,26.49
2023-05-21T11:59:59.260Z,26.54
2023-05-21T12:02:28.666Z,26.55
2023-05-21T12:05:00.473Z,26.54
2023-05-21T12:07:31.505Z,26.66
2023-05-21T12:09:58.686Z,26.62
2023-05-21T12:14:55.483Z,26.44
2023-05-21T12:17:23.777Z,26.39
2023-05-21T12:19:54.979Z,26.37
2023-05-21T12:22:24.616Z,26.39
2023-05-21T12:24:54.283Z,26.57
2023-05-21T12:27:21.776Z,26.60
2023-05-21T12:29:52.049Z,26.61
2023-05-21T12:32:19.934Z,26.77
2023-05-21T12:34:51.442Z,26.83
2023-05-21T12:37:34.122Z,26.83
2023-05-21T12:40:08.323Z,26.87
2023-05-21T12:42:35.524Z,26.89
2023-05-21T12:45:09.284Z,26.94
2023-05-21T12:47:36.354Z,26.97
2023-05-21T12:50:12.052Z,26.97
2023-05-21T12:52:40.553Z,27.05
2023-05-21T12:55:09.619Z,27.15
2023-05-21T12:57:39.014Z,27.19
2023-05-21T13:00:11.556Z,27.13
2023-05-21T13:02:40.584Z,27.09
2023-05-21T13:05:09.008Z,27.11
2023-05-21T13:07:38.242Z,27.08
2023-05-21T13:10:05.916Z,27.00
2023-05-21T13:12:33.702Z,26.93
2023-05-21T13:15:02.022Z,26.89
2023-05-21T13:17:29.286Z,26.87
2023-05-21T13:20:29.495Z,26.85
2023-05-21T13:22:56.692Z,26.72
2023-05-21T13:25:28.941Z,26.58
2023-05-21T13:27:56.453Z,26.45
2023-05-21T13:30:23.599Z,26.39
2023-05-21T13:32:50.850Z,26.30
2023-05-21T13:35:17.949Z,26.23
2023-05-21T13:37:45.346Z,26.12
2023-05-21T13:40:16.708Z,25.98
2023-05-21T13:42:48.321Z,25.89
2023-05-21T13:45:17.511Z,25.81
2023-05-21T13:47:46.296Z,25.72
2023-05-21T13:50:13.687Z,25.67
2023-05-21T13:52:40.850Z,25.69
2023-05-21T13:55:08.500Z,25.68
2023-05-21T13:57:35.753Z,25.68
2023-05-21T14:00:03.350Z,25.71
2023-05-21T14:02:35.246Z,25.75
2023-05-21T14:05:02.645Z,25.82
2023-05-21T14:07:29.687Z,25.83
2023-05-21T14:09:56.894Z,25.82
2023-05-21T14:12:23.993Z,25.82
2023-05-21T14:14:51.907Z,25.78
2023-05-21T14:17:18.936Z,25.75
2023-05-21T14:19:46.089Z,25.79
2023-05-21T14:22:13.332Z,25.79
2023-05-21T14:24:40.281Z,25.78
2023-05-21T14:27:07.280Z,25.79
2023-05-21T14:29:34.410Z,25.82
2023-05-21T14:32:01.458Z,25.74
2023-05-21T14:34:28.501Z,25.71
2023-05-21T14:36:55.672Z,25.80
2023-05-21T14:39:22.776Z,25.88
2023-05-21T14:41:51.664Z,25.94
2023-05-21T14:44:18.787Z,26.03
2023-05-21T14:46:45.967Z,26.12
2023-05-21T14:49:14.675Z,26.01
2023-05-21T14:51:42.854Z,25.90
2023-05-21T14:54:09.797Z,25.86
2023-05-21T14:56:36.840Z,25.80
2023-05-21T14:59:03.872Z,25.73
2023-05-21T15:01:31.112Z,25.66
2023-05-21T15:03:58.835Z,25.56
2023-05-21T15:06:26.006Z,25.44
2023-05-21T15:08:53.270Z,25.33
2023-05-21T15:11:22.303Z,25.21
2023-05-21T15:13:49.467Z,25.08
2023-05-21T15:16:18.735Z,25.03
2023-05-21T15:18:46.920Z,24.94
2023-05-21T15:21:14.013Z,24.83
2023-05-21T15:23:41.134Z,24.71
2023-05-21T15:26:09.344Z,24.64
2023-05-21T15:28:36.450Z,24.63
2023-05-21T15:31:03.402Z,24.64
2023-05-21T15:33:30.426Z,24.62
2023-05-21T15:35:57.455Z,24.57
2023-05-21T15:38:24.539Z,24.52
2023-05-21T15:40:52.296Z,24.47
2023-05-21T15:43:19.425Z,24.47
2023-05-21T15:45:46.467Z,24.46
2023-05-21T15:48:13.939Z,24.35
2023-05-21T15:50:40.939Z,24.31
2023-05-21T15:53:08.028Z,24.29
2023-05-21T15:55:35.245Z,24.23
2023-05-21T15:58:03.779Z,24.15
2023-05-21T16:00:30.986Z,24.10
2023-05-21T16:02:58.308Z,24.01
2023-05-21T16:05:26.373Z,23.91
2023-05-21T16:07:53.404Z,23.79
2023-05-21T16:10:21.617Z,23.77
2023-05-21T16:12:48.587Z,23.74
2023-05-21T16:15:15.815Z,23.70
2023-05-21T16:17:44.681Z,23.64
2023-05-21T16:20:12.319Z,23.63
2023-05-21T16:22:40.479Z,23.65
2023-05-21T16:25:08.078Z,23.64
2023-05-21T16:27:35.724Z,23.66
2023-05-21T16:30:03.245Z,23.66
2023-05-21T16:32:30.513Z,23.67
2023-05-21T16:34:57.715Z,23.67
2023-05-21T16:37:24.677Z,23.63
2023-05-21T16:39:51.708Z,23.54
2023-05-21T16:42:18.637Z,23.48
2023-05-21T16:44:45.855Z,23.35
2023-05-21T16:47:12.982Z,23.29
2023-05-21T16:49:40.072Z,23.25
2023-05-21T16:52:07.214Z,23.22
2023-05-21T16:54:34.340Z,23.13
2023-05-21T16:57:01.492Z,23.04
2023-05-21T16:59:29.021Z,22.98
2023-05-21T17:01:56.290Z,22.92
2023-05-21T17:04:23.762Z,22.88
2023-05-21T17:06:51.053Z,22.82
2023-05-21T17:09:18.892Z,22.78
2023-05-21T17:11:46.213Z,22.73
2023-05-21T17:14:20.295Z,22.60
2023-05-21T17:16:54.689Z,22.44
2023-05-21T17:19:22.068Z,22.40
2023-05-21T17:21:49.082Z,22.32
2023-05-21T17:24:16.071Z,22.22
2023-05-21T17:26:43.080Z,22.10
2023-05-21T17:29:10.108Z,22.01
2023-05-21T17:31:37.253Z,21.87
2023-05-21T17:34:04.377Z,21.72
2023-05-21T17:36:32.350Z,21.39
2023-05-21T17:38:59.638Z,21.19
2023-05-21T17:41:26.565Z,21.03
2023-05-21T17:43:53.678Z,20.97
2023-05-21T17:46:20.709Z,20.92
2023-05-21T17:48:47.809Z,20.94
2023-05-21T17:51:15.057Z,20.90
2023-05-21T17:53:42.046Z,21.03
2023-05-21T17:56:11.459Z,21.01
2023-05-21T17:58:38.463Z,20.99
2023-05-21T18:01:05.751Z,20.92
2023-05-21T18:03:32.834Z,20.89
2023-05-21T18:06:02.370Z,20.86
2023-05-21T18:08:30.187Z,20.68
2023-05-21T18:10:58.202Z,20.65
2023-05-21T18:13:25.367Z,20.58
2023-05-21T18:15:59.044Z,20.52
2023-05-21T18:18:26.138Z,20.42
2023-05-21T18:20:53.182Z,20.38
2023-05-21T18:23:21.003Z,20.34
2023-05-21T18:25:48.053Z,20.32
2023-05-21T18:28:15.030Z,20.29
2023-05-21T18:30:42.096Z,20.27
2023-05-21T18:33:09.424Z,20.27
2023-05-21T18:35:36.446Z,20.23
2023-05-21T18:38:04.377Z,20.17
2023-05-21T18:40:33.351Z,20.12
2023-05-21T18:43:00.963Z,20.10
2023-05-21T18:45:28.152Z,20.08
2023-05-21T18:47:55.458Z,20.03
2023-05-21T18:50:22.541Z,20.01
2023-05-21T18:52:53.847Z,19.94
2023-05-21T18:55:21.191Z,19.90
2023-05-21T18:57:48.229Z,19.89
2023-05-21T19:00:15.563Z,19.85
2023-05-21T19:02:43.835Z,19.79
2023-05-21T19:05:11.840Z,19.68
2023-05-21T19:07:41.301Z,19.62
2023-05-21T19:10:08.807Z,19.57
2023-05-21T19:12:36.433Z,19.54
2023-05-21T19:15:04.103Z,19.54
2023-05-21T19:17:31.821Z,19.54
2023-05-21T19:19:58.989Z,19.50
2023-05-21T19:22:26.383Z,19.44
2023-05-21T19:24:53.696Z,19.37
2023-05-21T19:27:20.959Z,19.29
2023-05-21T19:29:48.219Z,19.24
2023-05-21T19:32:16.319Z,19.20
2023-05-21T19:34:43.603Z,19.25
2023-05-21T19:37:10.681Z,19.16
2023-05-21T19:39:41.902Z,19.07
2023-05-21T19:42:09.538Z,18.95
2023-05-21T19:44:41.255Z,18.89
2023-05-21T19:47:11.415Z,18.87
2023-05-21T19:49:38.651Z,18.83
2023-05-21T19:52:05.911Z,18.83
2023-05-21T19:54:32.908Z,18.79
2023-05-21T19:56:59.913Z,18.69
2023-05-21T19:59:26.971Z,18.65
2023-05-21T20:01:55.568Z,18.57
2023-05-21T20:04:22.618Z,18.52
2023-05-21T20:06:49.644Z,18.52
2023-05-21T20:09:18.413Z,18.52
2023-05-21T20:11:45.488Z,18.41
2023-05-21T20:14:13.722Z,18.36
2023-05-21T20:16:42.530Z,18.31
2023-05-21T20:19:10.961Z,18.25
2023-05-21T20:21:38.166Z,18.19
2023-05-21T20:24:05.560Z,18.18
2023-05-21T20:26:35.105Z,18.14
2023-05-21T20:29:02.128Z,18.12
2023-05-21T20:31:29.476Z,18.11
2023-05-21T20:33:56.666Z,18.14
2023-05-21T20:36:24.021Z,18.14
2023-05-21T20:38:51.172Z,18.13
2023-05-21T20:41:18.144Z,18.15
2023-05-21T20:43:46.182Z,18.13
2023-05-21T20:46:13.732Z,18.06
2023-05-21T20:48:41.990Z,18.04
2023-05-21T20:51:09.214Z,18.01
2023-05-21T20:53:37.041Z,18.00
2023-05-21T20:56:08.483Z,18.01
2023-05-21T20:58:35.595Z,18.01
2023-05-21T21:01:02.599Z,18.02
2023-05-21T21:03:30.595Z,18.07
2023-05-21T21:05:58.336Z,18.11
2023-05-21T21:08:25.353Z,18.15
2023-05-21T21:10:52.470Z,18.18
2023-05-21T21:13:19.448Z,18.17
2023-05-21T21:15:46.392Z,18.15
2023-05-21T21:18:13.404Z,18.16
2023-05-21T21:20:42.833Z,18.13
2023-05-21T21:23:09.781Z,18.09
2023-05-21T21:25:36.863Z,18.18
2023-05-21T21:28:04.009Z,18.21
2023-05-21T21:30:31.205Z,18.22
2023-05-21T21:32:58.493Z,18.25
2023-05-21T21:35:25.575Z,18.24
2023-05-21T21:37:52.667Z,18.19
2023-05-21T21:40:19.654Z,18.22
2023-05-21T21:42:46.613Z,18.18
2023-05-21T21:45:13.648Z,18.16
2023-05-21T21:47:41.259Z,18.14
2023-05-21T21:50:08.624Z,18.10
2023-05-21T21:52:40.184Z,18.07
2023-05-21T21:55:09.471Z,18.09
2023-05-21T21:57:37.001Z,18.03
2023-05-21T22:00:13.443Z,17.97
2023-05-21T22:02:40.629Z,17.91
2023-05-21T22:05:08.904Z,17.99
2023-05-21T22:07:38.885Z,17.99
2023-05-21T22:10:06.681Z,17.90
2023-05-21T22:12:34.213Z,17.82
2023-05-21T22:15:05.867Z,17.76
2023-05-21T22:17:33.065Z,17.72
2023-05-21T22:20:01.193Z,17.69
2023-05-21T22:22:28.276Z,17.63
2023-05-21T22:24:55.248Z,17.57
2023-05-21T22:27:22.318Z,17.47
2023-05-21T22:29:49.299Z,17.41
2023-05-21T22:32:16.354Z,17.40
2023-05-21T22:34:43.543Z,17.38
2023-05-21T22:37:11.333Z,17.34
2023-05-21T22:39:38.269Z,17.40
2023-05-21T22:42:05.593Z,17.41
2023-05-21T22:44:32.573Z,17.40
2023-05-21T22:47:00.478Z,17.34
2023-05-21T22:49:27.560Z,17.20
2023-05-21T22:51:56.681Z,17.17
2023-05-21T22:54:23.826Z,17.17
2023-05-21T22:56:51.102Z,17.17
2023-05-21T22:59:18.103Z,17.13
2023-05-21T23:01:45.258Z,17.17
2023-05-21T23:04:12.259Z,17.18
2023-05-21T23:06:39.256Z,17.24
2023-05-21T23:09:06.345Z,17.20
2023-05-21T23:11:33.354Z,17.17
2023-05-21T23:14:00.259Z,17.18
2023-05-21T23:16:27.239Z,17.16
2023-05-21T23:18:54.494Z,17.09
2023-05-21T23:21:22.061Z,17.07
2023-05-21T23:23:49.094Z,17.07
2023-05-21T23:26:16.066Z,17.07
2023-05-21T23:28:43.036Z,17.05
2023-05-21T23:31:10.814Z,17.07
2023-05-21T23:33:38.466Z,17.10
2023-05-21T23:36:05.971Z,17.11
2023-05-21T23:38:32.952Z,17.14
2023-05-21T23:40:59.865Z,17.16
2023-05-21T23:43:26.882Z,17.15
2023-05-21T23:45:53.929Z,17.12
2023-05-21T23:48:21.032Z,17.12
2023-05-21T23:50:48.119Z,17.11
2023-05-21T23:53:15.131Z,17.09
2023-05-21T23:55:42.146Z,17.10
2023-05-21T23:58:09.112Z,17.09
